Time;durP1;ratioP1;P1;durP2;ratioP2;P2;SDS_P1;SDS_P2;PMS_P1;PMS_P2;Temp;Humidity;BMP_temperature;BMP_pressure;BME280_temperature;BME280_humidity;BME280_pressure;Samples;Min_cycle;Max_cycle;Signal;HPM_P1;HPM_P2
2023/11/18 00:01:40;;;;;;;32.20;14.70;;;;;;;4.26;100.00;100788.11;223305;1266;139301;-91
2023/11/18 00:07:32;;;;;;;30.20;15.00;;;;;;;4.21;100.00;100795.53;223694;1267;139007;-90
2023/11/18 00:13:15;;;;;;;27.70;13.90;;;;;;;4.19;100.00;100798.92;223666;1266;141589;-91
2023/11/18 00:19:17;;;;;;;;;;;;;;;;;;;;;
2023/11/18 00:24:58;;;;;;;;;;;;;;;;;;;;;
2023/11/18 00:30:59;;;;;;;;;;;;;;;;;;;;;
2023/11/18 00:36:44;;;;;;;32.20;16.10;;;;;;;4.08;100.00;100816.85;223712;1267;139442;-90
2023/11/18 00:42:22;;;;;;;;;;;;;;;;;;;;;
2023/11/18 00:48:23;;;;;;;38.00;18.40;;;;;;;4.06;100.00;100839.69;223147;1267;140439;-90
2023/11/18 00:54:25;;;;;;;33.60;17.00;;;;;;;4.06;100.00;100843.20;223974;1266;139804;-91
2023/11/18 01:00:07;;;;;;;40.40;20.10;;;;;;;4.08;100.00;100851.69;223106;1266;140630;-90
2023/11/18 01:06:08;;;;;;;38.10;19.20;;;;;;;4.10;100.00;100859.98;223810;1266;139292;-91
2023/11/18 01:11:59;;;;;;;;;;;;;;;;;;;;;
2023/11/18 01:18:02;;;;;;;41.40;20.00;;;;;;;4.13;100.00;100871.66;223742;1266;139321;-91
2023/11/18 01:24:03;;;;;;;42.90;20.90;;;;;;;4.12;100.00;100876.69;223618;1267;139474;-91
2023/11/18 01:30:04;;;;;;;41.20;20.10;;;;;;;4.13;100.00;100879.06;223197;1267;140369;-92
2023/11/18 01:36:04;;;;;;;;;;;;;;;;;;;;;
2023/11/18 01:47:56;;;;;;;51.10;21.90;;;;;;;4.19;100.00;100904.19;223154;1267;140613;-91
2023/11/18 01:53:49;;;;;;;;;;;;;;;;;;;;;
2023/11/18 01:59:54;;;;;;;55.70;25.20;;;;;;;4.20;100.00;100924.69;223259;1267;140511;-92
2023/11/18 02:05:36;;;;;;;50.20;21.60;;;;;;;4.22;100.00;100931.22;223849;1267;105083;-92
2023/11/18 02:11:32;;;;;;;;;;;;;;;;;;;;;
2023/11/18 02:17:15;;;;;;;55.00;21.70;;;;;;;4.26;100.00;100941.22;223901;1266;106309;-91
2023/11/18 02:23:07;;;;;;;;;;;;;;;;;;;;;
2023/11/18 02:29:02;;;;;;;;;;;;;;;;;;;;;
2023/11/18 02:35:19;;;;;;;42.90;19.00;;;;;;;4.27;100.00;100959.06;223803;1267;139032;-92
2023/11/18 02:41:10;;;;;;;45.20;20.80;;;;;;;4.28;100.00;100961.86;222866;1266;140916;-92
2023/11/18 02:46:48;;;;;;;;;;;;;;;;;;;;;
2023/11/18 02:52:31;;;;;;;43.60;20.30;;;;;;;4.27;100.00;100978.39;223159;1267;140379;-92
2023/11/18 02:58:21;;;;;;;;;;;;;;;;;;;;;
2023/11/18 03:04:14;;;;;;;44.90;18.90;;;;;;;4.30;100.00;100989.96;223760;1267;139428;-92
2023/11/18 03:10:20;;;;;;;47.00;20.90;;;;;;;4.28;100.00;100996.56;223296;1267;140860;-92
2023/11/18 03:15:55;;;;;;;42.20;16.70;;;;;;;4.29;100.00;101007.27;223725;1266;138935;-92
2023/11/18 03:21:20;;;;;;;;;;;;;;;;;;;;;
2023/11/18 03:27:22;;;;;;;41.80;17.70;;;;;;;4.33;100.00;101014.84;223837;1266;139654;-92
2023/11/18 03:33:13;;;;;;;40.70;18.70;;;;;;;4.32;100.00;101018.57;223900;1267;139371;-91
2023/11/18 03:39:14;;;;;;;39.90;17.40;;;;;;;4.32;100.00;101022.12;223292;1267;140570;-92
2023/11/18 03:45:15;;;;;;;37.70;17.00;;;;;;;4.33;100.00;101026.05;223707;1267;139182;-92
2023/11/18 03:51:17;;;;;;;37.80;16.80;;;;;;;4.35;100.00;101030.84;223255;1267;140417;-91
2023/11/18 03:57:19;;;;;;;37.00;16.90;;;;;;;4.34;100.00;101031.90;223701;1267;139538;-91
2023/11/18 04:03:07;;;;;;;34.50;15.10;;;;;;;4.32;100.00;101039.11;223167;1268;141663;-92
2023/11/18 04:09:03;;;;;;;;;;;;;;;;;;;;;
2023/11/18 04:15:05;;;;;;;35.60;16.10;;;;;;;4.30;100.00;101061.91;223668;1266;138940;-92
2023/11/18 04:20:45;;;;;;;29.00;14.20;;;;;;;4.30;100.00;101062.67;223449;1268;140566;-92
2023/11/18 04:26:48;;;;;;;28.60;13.40;;;;;;;4.29;100.00;101066.02;223812;1267;139098;-92
2023/11/18 04:32:19;;;;;;;;;;;;;;;;;;;;;
2023/11/18 04:38:11;;;;;;;33.90;15.30;;;;;;;4.29;100.00;101072.73;223163;1266;141635;-91
2023/11/18 04:43:55;;;;;;;;;;;;;;;;;;;;;
2023/11/18 04:55:58;;;;;;;26.90;14.20;;;;;;;4.32;100.00;101087.90;223772;1267;139239;-91
2023/11/18 05:01:52;;;;;;;26.50;13.50;;;;;;;4.31;100.00;101094.17;223101;1267;140347;-90
2023/11/18 05:07:51;;;;;;;27.50;13.90;;;;;;;4.27;100.00;101094.79;223697;1267;139327;-90
2023/11/18 05:13:44;;;;;;;;;;;;;;;;;;;;;
2023/11/18 05:19:46;;;;;;;27.90;13.60;;;;;;;4.28;100.00;101091.23;223231;1267;140565;-91
2023/11/18 05:25:30;;;;;;;33.10;15.00;;;;;;;4.27;100.00;101093.05;223704;1266;140033;-92
2023/11/18 05:31:48;;;;;;;27.70;13.20;;;;;;;4.27;100.00;101101.84;223215;1267;140149;-91
2023/11/18 05:37:22;;;;;;;26.10;13.30;;;;;;;4.26;100.00;101107.19;223555;1267;139035;-91
2023/11/18 05:43:15;;;;;;;;;;;;;;;;;;;;;
2023/11/18 05:49:07;;;;;;;;;;;;;;;;;;;;;
2023/11/18 06:01:08;;;;;;;;;;;;;;;;;;;;;
2023/11/18 06:07:03;;;;;;;18.60;7.70;;;;;;;4.02;100.00;101145.39;223753;1270;138823;-90
2023/11/18 06:13:04;;;;;;;17.30;8.30;;;;;;;4.02;100.00;101149.30;223235;1266;140640;-92
2023/11/18 06:18:59;;;;;;;19.70;8.70;;;;;;;4.00;100.00;101152.59;223176;1267;141980;-92
2023/11/18 06:24:46;;;;;;;20.80;9.00;;;;;;;3.92;100.00;101153.02;223835;1267;138786;-92
2023/11/18 06:30:40;;;;;;;20.00;9.70;;;;;;;3.88;100.00;101161.91;223126;1267;140041;-89
2023/11/18 06:36:26;;;;;;;28.70;12.50;;;;;;;3.88;100.00;101173.13;223741;1267;138982;-90
2023/11/18 06:42:02;;;;;;;;;;;;;;;;;;;;;
2023/11/18 06:47:43;;;;;;;;;;;;;;;;;;;;;
2023/11/18 06:53:18;;;;;;;;;;;;;;;;;;;;;
2023/11/18 06:59:10;;;;;;;39.30;18.30;;;;;;;3.62;100.00;101189.24;223335;1267;139102;-92
2023/11/18 07:05:10;;;;;;;57.90;22.60;;;;;;;3.60;100.00;101188.11;223612;1266;139059;-91
2023/11/18 07:11:03;;;;;;;48.00;22.20;;;;;;;3.56;100.00;101192.94;223081;1268;140166;-90
2023/11/18 07:17:05;;;;;;;43.60;20.30;;;;;;;3.58;100.00;101199.59;223693;1267;138972;-92
2023/11/18 07:22:58;;;;;;;50.30;21.70;;;;;;;3.54;100.00;101199.92;223146;1267;140603;-91
2023/11/18 07:28:53;;;;;;;;;;;;;;;;;;;;;
2023/11/18 07:34:41;;;;;;;35.60;18.20;;;;;;;3.39;100.00;101199.86;223711;1267;138759;-91
2023/11/18 07:40:37;;;;;;;34.20;18.40;;;;;;;3.30;100.00;101210.55;223149;1267;140221;-88
2023/11/18 07:46:38;;;;;;;31.10;15.60;;;;;;;3.23;100.00;101215.81;223437;1267;139141;-90
2023/11/18 07:52:37;;;;;;;30.20;16.30;;;;;;;3.24;100.00;101224.98;223269;1267;140119;-89
2023/11/18 07:58:36;;;;;;;;;;;;;;;;;;;;;
2023/11/18 08:04:39;;;;;;;31.50;16.40;;;;;;;3.14;100.00;101236.92;223670;1267;138796;-87
2023/11/18 08:10:24;;;;;;;30.80;15.20;;;;;;;3.23;100.00;101248.35;223203;1267;140163;-89
2023/11/18 08:16:24;;;;;;;30.20;15.80;;;;;;;3.30;100.00;101258.30;223659;1266;138818;-89
2023/11/18 08:22:07;;;;;;;;;;;;;;;;;;;;;
2023/11/18 08:28:07;;;;;;;;;;;;;;;;;;;;;
2023/11/18 08:33:54;;;;;;;29.50;15.40;;;;;;;3.46;100.00;101272.13;223627;1267;138789;-89
2023/11/18 08:39:49;;;;;;;29.50;16.20;;;;;;;3.51;100.00;101276.52;223191;1267;140140;-89
2023/11/18 08:45:34;;;;;;;26.50;14.40;;;;;;;3.59;100.00;101284.70;223752;1267;138498;-90
2023/11/18 08:51:25;;;;;;;;;;;;;;;;;;;;;
2023/11/18 08:57:15;;;;;;;;;;;;;;;;;;;;;
2023/11/18 09:03:43;;;;;;;26.90;13.80;;;;;;;3.64;100.00;101319.85;223255;1267;139816;-91
2023/11/18 09:15:22;;;;;;;29.10;14.90;;;;;;;3.77;100.00;101339.73;223665;1268;138928;-90
2023/11/18 09:21:24;;;;;;;26.70;14.80;;;;;;;3.87;100.00;101358.20;223216;1267;140349;-90
2023/11/18 09:27:13;;;;;;;25.90;13.70;;;;;;;3.99;100.00;101366.20;223555;1267;139124;-90
2023/11/18 09:32:58;;;;;;;26.70;13.60;;;;;;;4.09;100.00;101364.52;223311;1267;139648;-91
2023/11/18 09:38:59;;;;;;;33.90;19.50;;;;;;;4.18;100.00;101368.33;219119;1268;5427545;-90
2023/11/18 09:44:50;;;;;;;26.90;14.30;;;;;;;4.25;100.00;101375.25;223643;1266;139335;-90
2023/11/18 09:50:48;;;;;;;;;;;;;;;;;;;;;
2023/11/18 09:56:55;;;;;;;26.70;13.30;;;;;;;4.33;100.00;101381.17;223699;1268;139170;-89
2023/11/18 10:02:58;;;;;;;30.40;16.30;;;;;;;4.39;100.00;101382.91;223103;1266;140740;-87
2023/11/18 10:08:49;;;;;;;;;;;;;;;;;;;;;
2023/11/18 10:20:41;;;;;;;30.40;14.80;;;;;;;4.39;100.00;101388.80;223074;1271;142324;-88
2023/11/18 10:26:40;;;;;;;;;;;;;;;;;;;;;
2023/11/18 10:38:29;;;;;;;26.50;14.10;;;;;;;4.50;100.00;101383.44;222914;1269;140740;-88
2023/11/18 10:44:09;;;;;;;;;;;;;;;;;;;;;
2023/11/18 10:50:13;;;;;;;29.20;15.90;;;;;;;4.63;100.00;101394.31;223065;1267;140033;-88
2023/11/18 10:56:16;;;;;;;26.40;14.40;;;;;;;4.70;100.00;101388.41;223697;1266;139050;-89
2023/11/18 11:02:17;;;;;;;28.70;14.40;;;;;;;4.78;100.00;101393.02;222925;1267;139961;-87
2023/11/18 11:08:16;;;;;;;;;;;;;;;;;;;;;
2023/11/18 11:14:18;;;;;;;31.30;17.40;;;;;;;4.81;100.00;101394.05;223665;1270;139102;-86
2023/11/18 11:26:56;;;;;;;32.40;16.40;;;;;;;4.82;100.00;101393.36;223610;1270;139215;-85
2023/11/18 11:32:57;;;;;;;31.40;17.30;;;;;;;4.84;100.00;101401.30;223135;1268;140183;-87
2023/11/18 11:38:58;;;;;;;34.10;17.80;;;;;;;4.86;100.00;101401.79;223115;1266;140173;-88
2023/11/18 11:44:58;;;;;;;34.50;16.90;;;;;;;4.89;100.00;101396.92;223666;1267;139299;-86
2023/11/18 11:50:58;;;;;;;;;;;;;;;;;;;;;
2023/11/18 11:57:01;;;;;;;28.30;15.90;;;;;;;4.77;100.00;101413.30;223652;1268;139367;-87
2023/11/18 12:03:04;;;;;;;35.20;18.10;;;;;;;4.79;100.00;101420.70;223120;1269;140022;-88
2023/11/18 12:08:51;;;;;;;33.50;19.20;;;;;;;4.82;100.00;101412.94;223123;1269;235254;-87
2023/11/18 12:15:28;;;;;;;31.90;17.80;;;;;;;4.80;100.00;101403.40;223758;1267;139229;-86
2023/11/18 12:21:24;;;;;;;31.70;16.70;;;;;;;4.83;100.00;101406.05;222948;1266;143186;-87
2023/11/18 12:27:38;;;;;;;;;;;;;;;;;;;;;
2023/11/18 12:40:13;;;;;;;23.00;12.80;;;;;;;4.97;100.00;101418.77;223061;1270;140287;-86
2023/11/18 12:46:37;;;;;;;27.60;15.00;;;;;;;4.94;100.00;101422.26;223688;1267;138781;-86
2023/11/18 12:52:37;;;;;;;26.20;12.30;;;;;;;4.97;100.00;101429.27;223148;1267;140101;-86
2023/11/18 12:58:25;;;;;;;;;;;;;;;;;;;;;
2023/11/18 13:04:27;;;;;;;27.10;14.60;;;;;;;5.13;100.00;101432.57;223789;1266;139037;-86
2023/11/18 13:10:28;;;;;;;26.80;14.10;;;;;;;5.22;100.00;101432.95;223154;1269;140312;-85
2023/11/18 13:22:33;;;;;;;35.00;16.90;;;;;;;5.23;100.00;101411.55;222991;1270;139973;-84
2023/11/18 13:28:33;;;;;;;32.10;17.20;;;;;;;5.09;100.00;101412.00;223000;1267;140173;-86
2023/11/18 13:34:20;;;;;;;37.10;20.10;;;;;;;4.96;100.00;101411.52;223643;1267;139612;-86
2023/11/18 13:40:23;;;;;;;53.40;30.50;;;;;;;4.98;100.00;101415.44;223068;1267;140094;-85
2023/11/18 13:46:14;;;;;;;;;;;;;;;;;;;;;
2023/11/18 13:52:10;;;;;;;;;;;;;;;;;;;;;
2023/11/18 13:58:10;;;;;;;33.50;16.90;;;;;;;4.92;100.00;101440.73;223242;1267;140196;-85
2023/11/18 14:04:34;;;;;;;31.70;18.10;;;;;;;4.86;100.00;101432.69;223700;1271;138910;-85
2023/11/18 14:10:08;;;;;;;;;;;;;;;;;;;;;
2023/11/18 14:15:57;;;;;;;;;;;;;;;;;;;;;
2023/11/18 14:21:49;;;;;;;39.20;19.50;;;;;;;4.77;100.00;101420.27;223243;1267;140348;-86
2023/11/18 14:27:43;;;;;;;;;;;;;;;;;;;;;
2023/11/18 14:33:45;;;;;;;30.20;16.10;;;;;;;4.74;100.00;101403.61;223606;1267;138912;-86
2023/11/18 14:39:40;;;;;;;33.40;17.10;;;;;;;4.55;100.00;101405.75;223118;1269;140451;-86
2023/11/18 14:45:37;;;;;;;40.30;17.20;;;;;;;4.36;100.00;101412.64;223674;1267;139771;-86
2023/11/18 14:51:07;;;;;;;;;;;;;;;;;;;;;
2023/11/18 14:57:12;;;;;;;37.60;19.60;;;;;;;3.96;100.00;101435.23;223706;1267;125580;-87
2023/11/18 15:03:13;;;;;;;36.90;19.30;;;;;;;3.79;100.00;101437.20;223308;1267;139953;-87
2023/11/18 15:09:03;;;;;;;41.10;18.60;;;;;;;3.66;100.00;101428.36;223103;1267;140288;-87
2023/11/18 15:21:06;;;;;;;39.30;21.80;;;;;;;3.35;100.00;101421.33;222782;1267;140388;-87
2023/11/18 15:27:07;;;;;;;45.60;23.40;;;;;;;3.20;100.00;101423.86;223692;1267;139534;-84
2023/11/18 15:33:08;;;;;;;39.20;21.20;;;;;;;2.99;100.00;101418.33;223297;1267;249084;-85
2023/11/18 15:39:01;;;;;;;;;;;;;;;;;;;;;
2023/11/18 15:51:04;;;;;;;54.30;28.30;;;;;;;2.52;100.00;101421.15;223038;1267;140828;-86
2023/11/18 15:56:59;;;;;;;47.90;24.90;;;;;;;2.38;100.00;101421.61;223628;1267;139036;-87
2023/11/18 16:09:03;;;;;;;113.70;54.50;;;;;;;2.12;100.00;101426.89;223049;1267;140430;-87
2023/11/18 16:21:01;;;;;;;;;;;;;;;;;;;;;
2023/11/18 16:27:02;;;;;;;98.10;43.70;;;;;;;1.78;100.00;101419.40;223712;1266;138989;-86
2023/11/18 16:33:03;;;;;;;95.90;45.50;;;;;;;1.62;100.00;101409.11;223283;1267;140039;-86
2023/11/18 16:39:06;;;;;;;97.50;46.50;;;;;;;1.53;100.00;101424.31;223139;1266;140051;-86
2023/11/18 16:45:00;;;;;;;87.10;41.20;;;;;;;1.37;100.00;101435.02;223741;1267;139110;-85
2023/11/18 16:50:58;;;;;;;119.00;50.50;;;;;;;1.18;100.00;101424.86;223244;1267;140546;-86
2023/11/18 16:56:59;;;;;;;193.00;87.70;;;;;;;1.12;100.00;101409.91;223669;1267;139938;-86
2023/11/18 17:03:00;;;;;;;167.80;72.80;;;;;;;1.06;100.00;101404.04;223072;1266;140108;-85
2023/11/18 17:15:03;;;;;;;105.00;48.90;;;;;;;0.92;100.00;101401.88;223689;1267;139940;-86
2023/11/18 17:21:04;;;;;;;99.10;46.60;;;;;;;0.87;100.00;101403.72;223247;1266;140207;-86
2023/11/18 17:27:03;;;;;;;;;;;;;;;;;;;;;
2023/11/18 17:33:06;;;;;;;120.80;54.30;;;;;;;0.72;100.00;101387.27;223185;1267;140575;-86
2023/11/18 17:39:10;;;;;;;94.60;45.50;;;;;;;0.66;100.00;101389.34;223165;1266;140874;-86
2023/11/18 17:45:06;;;;;;;;;;;;;;;;;;;;;
2023/11/18 17:50:58;;;;;;;136.30;61.30;;;;;;;0.50;100.00;101378.84;223131;1267;140320;-86
2023/11/18 17:56:51;;;;;;;131.80;61.90;;;;;;;0.44;100.00;101373.26;223705;1267;139142;-86
2023/11/18 18:02:52;;;;;;;90.40;46.00;;;;;;;0.39;100.00;101374.52;223174;1266;140334;-86
2023/11/18 18:08:53;;;;;;;85.10;40.50;;;;;;;0.34;100.00;101371.27;223221;1266;140215;-86
2023/11/18 18:14:55;;;;;;;69.50;35.00;;;;;;;0.30;100.00;101364.55;223755;1266;139095;-85
2023/11/18 18:20:56;;;;;;;75.50;37.00;;;;;;;0.27;100.00;101363.97;223093;1266;140269;-87
2023/11/18 18:26:57;;;;;;;82.00;40.10;;;;;;;0.21;100.00;101359.59;223758;1266;138957;-86
2023/11/18 18:38:59;;;;;;;99.30;49.30;;;;;;;0.17;100.00;101362.30;223074;1266;140267;-86
2023/11/18 18:45:00;;;;;;;88.30;43.10;;;;;;;0.14;100.00;101369.98;223671;1266;139604;-86
2023/11/18 18:50:50;;;;;;;85.60;43.00;;;;;;;0.10;100.00;101364.41;223200;1267;140779;-86
2023/11/18 18:56:52;;;;;;;123.10;58.70;;;;;;;0.05;100.00;101358.49;223687;1267;138976;-86
2023/11/18 19:02:42;;;;;;;114.40;52.90;;;;;;;0.03;100.00;101364.20;223206;1266;140400;-86
2023/11/18 19:08:44;;;;;;;146.10;72.50;;;;;;;-0.01;100.00;101353.80;223137;1267;140730;-86
2023/11/18 19:14:44;;;;;;;150.40;68.20;;;;;;;-0.05;100.00;101347.06;223735;1266;139609;-86
2023/11/18 19:20:45;;;;;;;113.50;58.10;;;;;;;-0.07;100.00;101341.67;223105;1267;140590;-86
2023/11/18 19:26:35;;;;;;;164.20;73.80;;;;;;;-0.11;100.00;101342.10;223669;1266;139534;-86
2023/11/18 19:32:33;;;;;;;143.50;70.50;;;;;;;-0.17;100.00;101332.56;223140;1266;140915;-86
2023/11/18 19:38:36;;;;;;;128.60;62.50;;;;;;;-0.17;100.00;101325.22;223196;1267;140840;-86
2023/11/18 19:44:35;;;;;;;107.50;50.30;;;;;;;-0.17;100.00;101329.33;223640;1266;139809;-87
2023/11/18 19:50:27;;;;;;;98.10;45.20;;;;;;;-0.18;100.00;101316.45;223161;1266;140699;-86
2023/11/18 19:56:27;;;;;;;113.20;52.90;;;;;;;-0.18;100.00;101307.27;223828;1266;139892;-86
2023/11/18 20:02:31;;;;;;;114.70;54.40;;;;;;;-0.20;100.00;101298.63;223161;1266;140407;-85
2023/11/18 20:08:29;;;;;;;102.50;48.60;;;;;;;-0.24;100.00;101287.52;223301;1267;140602;-86
2023/11/18 20:14:30;;;;;;;98.20;45.70;;;;;;;-0.28;100.00;101289.34;223699;1267;139447;-85
2023/11/18 20:20:45;;;;;;;168.40;76.50;;;;;;;-0.30;100.00;101292.00;223085;1270;140608;-84
2023/11/18 20:26:21;;;;;;;;;;;;;;;;;;;;;
2023/11/18 20:32:23;;;;;;;108.70;51.80;;;;;;;-0.34;100.00;101293.45;223063;1267;141181;-87
2023/11/18 20:38:24;;;;;;;126.10;59.80;;;;;;;-0.38;100.00;101284.61;223066;1266;140782;-86
2023/11/18 20:44:08;;;;;;;117.90;55.20;;;;;;;-0.39;100.00;101273.70;223711;1267;139994;-85
2023/11/18 20:50:35;;;;;;;183.80;86.50;;;;;;;-0.41;100.00;101268.20;223169;1266;141334;-85
2023/11/18 20:56:11;;;;;;;118.00;55.70;;;;;;;-0.44;100.00;101265.14;223589;1267;139991;-85
2023/11/18 21:02:12;;;;;;;103.00;45.40;;;;;;;-0.43;100.00;101265.79;223133;1267;140790;-86
2023/11/18 21:08:15;;;;;;;93.20;42.90;;;;;;;-0.44;100.00;101265.41;223027;1267;140724;-86
2023/11/18 21:13:45;;;;;;;;;;;;;;;;;;;;;
2023/11/18 21:19:40;;;;;;;107.70;42.60;;;;;;;-0.45;100.00;101258.34;223135;1267;142022;-85
2023/11/18 21:25:40;;;;;;;91.50;38.50;;;;;;;-0.42;100.00;101255.17;223647;1267;139621;-85
2023/11/18 21:31:41;;;;;;;123.40;50.10;;;;;;;-0.36;100.00;101240.89;223074;1267;140443;-86
2023/11/18 21:37:42;;;;;;;98.00;42.40;;;;;;;-0.31;100.00;101221.97;219677;1267;5356592;-87
2023/11/18 21:43:44;;;;;;;103.00;43.80;;;;;;;-0.24;100.00;101204.16;223696;1267;140125;-87
2023/11/18 21:49:36;;;;;;;94.20;42.40;;;;;;;-0.15;100.00;101197.95;223064;1267;140925;-87
2023/11/18 22:01:39;;;;;;;124.60;53.30;;;;;;;-0.04;100.00;101183.16;223025;1268;140684;-86
2023/11/18 22:07:39;;;;;;;125.20;48.20;;;;;;;0.02;100.00;101175.83;223691;1267;139412;-86
2023/11/18 22:13:33;;;;;;;82.30;37.60;;;;;;;0.06;100.00;101172.70;223610;1267;139184;-86
2023/11/18 22:25:38;;;;;;;78.80;34.20;;;;;;;0.21;100.00;101168.86;223681;1267;139458;-87
2023/11/18 22:31:31;;;;;;;;;;;;;;;;;;;;;
2023/11/18 22:37:41;;;;;;;74.40;31.10;;;;;;;0.37;100.00;101154.52;223637;1268;138168;-86
2023/11/18 22:43:43;;;;;;;63.00;28.20;;;;;;;0.43;100.00;101152.39;223661;1267;139197;-87
2023/11/18 22:49:44;;;;;;;64.40;27.90;;;;;;;0.48;100.00;101147.98;223115;1267;140111;-87
2023/11/18 22:55:45;;;;;;;61.70;27.50;;;;;;;0.54;100.00;101148.36;223651;1267;139572;-87
2023/11/18 23:01:39;;;;;;;;;;;;;;;;;;;;;
2023/11/18 23:07:43;;;;;;;53.70;25.20;;;;;;;0.63;100.00;101121.77;223596;1267;139632;-88
2023/11/18 23:13:42;;;;;;;63.80;29.50;;;;;;;0.64;100.00;101108.09;223718;1267;138934;-85
2023/11/18 23:19:40;;;;;;;63.10;27.80;;;;;;;0.66;100.00;101099.55;223220;1267;140607;-86
2023/11/18 23:25:34;;;;;;;;;;;;;;;;;;;;;
2023/11/18 23:31:42;;;;;;;58.50;28.30;;;;;;;0.76;100.00;101086.92;223158;1267;140004;-86
2023/11/18 23:37:43;;;;;;;64.60;29.70;;;;;;;0.77;100.00;101080.73;223579;1267;139034;-87
2023/11/18 23:43:44;;;;;;;65.60;29.00;;;;;;;0.76;100.00;101088.17;223543;1267;138953;-87
2023/11/18 23:55:47;;;;;;;69.80;32.10;;;;;;;0.80;100.00;101060.19;223588;1267;139250;-86
